Time;durP1;ratioP1;P1;durP2;ratioP2;P2;SDS_P1;SDS_P2;PMS_P1;PMS_P2;Temp;Humidity;BMP_temperature;BMP_pressure;BME280_temperature;BME280_humidity;BME280_pressure;Samples;Min_cycle;Max_cycle;Signal;HPM_P1;HPM_P2
2022/08/09 00:01:42;;;;;;;2.83;1.40;;;;;;;;;;5052117;28;20241;-83
2022/08/09 00:04:09;;;;;;;1.50;1.40;;;;;;;;;;5053663;28;20246;-84
2022/08/09 00:06:37;;;;;;;1.27;1.17;;;;;;;;;;5053659;28;20591;-85
2022/08/09 00:09:04;;;;;;;1.85;1.20;;;;;;;;;;5054252;28;20229;-84
2022/08/09 00:11:31;;;;;;;3.25;1.38;;;;;;;;;;5055848;28;20238;-83
2022/08/09 00:13:58;;;;;;;1.10;1.05;;;;;;;;;;5056784;28;20275;-84
2022/08/09 00:16:26;;;;;;;1.20;1.20;;;;;;;;;;5056341;28;20240;-83
2022/08/09 00:18:53;;;;;;;2.00;1.17;;;;;;;;;;5057154;28;20198;-84
2022/08/09 00:21:20;;;;;;;1.98;1.52;;;;;;;;;;5055753;28;20601;-83
2022/08/09 00:23:48;;;;;;;1.40;1.30;;;;;;;;;;5056396;28;20229;-84
2022/08/09 00:26:15;;;;;;;2.00;1.40;;;;;;;;;;5055658;28;20267;-84
2022/08/09 00:28:43;;;;;;;2.40;1.63;;;;;;;;;;5056287;28;20241;-85
2022/08/09 00:31:10;;;;;;;2.30;1.13;;;;;;;;;;5055425;28;20238;-83
2022/08/09 00:33:38;;;;;;;3.67;1.40;;;;;;;;;;5056002;28;20226;-85
2022/08/09 00:36:05;;;;;;;1.85;1.35;;;;;;;;;;5054880;28;20316;-84
2022/08/09 00:38:32;;;;;;;2.73;1.40;;;;;;;;;;5056010;28;20209;-83
2022/08/09 00:41:01;;;;;;;2.47;1.30;;;;;;;;;;5055157;28;20238;-83
2022/08/09 00:43:30;;;;;;;2.97;1.52;;;;;;;;;;5055650;28;20206;-84
2022/08/09 00:45:57;;;;;;;2.08;1.52;;;;;;;;;;5055336;28;20254;-84
2022/08/09 00:48:24;;;;;;;1.42;1.27;;;;;;;;;;5060721;28;20688;-83
2022/08/09 00:50:51;;;;;;;1.38;1.27;;;;;;;;;;5063706;28;20238;-84
2022/08/09 00:53:18;;;;;;;1.75;1.17;;;;;;;;;;5063953;28;20206;-84
2022/08/09 00:55:45;;;;;;;2.35;1.55;;;;;;;;;;5063778;28;20389;-83
2022/08/09 00:58:13;;;;;;;1.42;1.33;;;;;;;;;;5064056;28;20202;-84
2022/08/09 01:00:42;;;;;;;1.60;1.50;;;;;;;;;;5063575;28;20237;-83
2022/08/09 01:03:13;;;;;;;1.60;1.50;;;;;;;;;;5057765;28;20217;-83
2022/08/09 01:05:43;;;;;;;3.65;1.50;;;;;;;;;;5054869;28;20241;-83
2022/08/09 01:08:13;;;;;;;4.38;1.80;;;;;;;;;;5053794;28;20598;-84
2022/08/09 01:10:47;;;;;;;1.98;1.58;;;;;;;;;;5054539;28;20249;-84
2022/08/09 01:13:19;;;;;;;1.48;1.38;;;;;;;;;;5055191;28;20197;-84
2022/08/09 01:15:47;;;;;;;3.35;1.30;;;;;;;;;;5054716;28;20233;-84
2022/08/09 01:18:18;;;;;;;3.40;1.38;;;;;;;;;;5055301;28;20209;-84
2022/08/09 01:20:48;;;;;;;2.20;1.27;;;;;;;;;;5054167;28;20241;-84
2022/08/09 01:23:28;;;;;;;2.30;2.10;;;;;;;;;;5054241;28;20195;-83
2022/08/09 01:26:01;;;;;;;1.50;1.40;;;;;;;;;;5054415;28;20240;-84
2022/08/09 01:28:30;;;;;;;1.70;1.57;;;;;;;;;;5054734;28;20229;-84
2022/08/09 01:30:59;;;;;;;1.43;1.33;;;;;;;;;;5054034;28;20678;-84
2022/08/09 01:33:27;;;;;;;2.00;1.50;;;;;;;;;;5054645;28;20209;-84
2022/08/09 01:35:58;;;;;;;1.60;1.50;;;;;;;;;;5054290;28;20240;-83
2022/08/09 01:38:26;;;;;;;4.00;1.87;;;;;;;;;;5054447;28;20206;-84
2022/08/09 01:40:56;;;;;;;6.10;1.67;;;;;;;;;;5054132;28;20230;-84
2022/08/09 01:43:23;;;;;;;1.43;1.33;;;;;;;;;;5054547;28;20208;-84
2022/08/09 01:45:52;;;;;;;3.03;2.00;;;;;;;;;;5054308;28;20245;-84
2022/08/09 01:48:20;;;;;;;3.03;1.47;;;;;;;;;;5054740;28;20206;-84
2022/08/09 01:50:52;;;;;;;1.90;1.77;;;;;;;;;;5053754;28;20234;-84
2022/08/09 01:53:22;;;;;;;1.60;1.50;;;;;;;;;;5054414;28;20609;-84
2022/08/09 01:55:50;;;;;;;2.53;1.77;;;;;;;;;;5053782;28;20254;-84
2022/08/09 01:58:17;;;;;;;2.50;1.67;;;;;;;;;;5054265;28;20225;-83
2022/08/09 02:00:46;;;;;;;1.87;1.70;;;;;;;;;;5053722;28;20640;-84
2022/08/09 02:03:15;;;;;;;1.70;1.60;;;;;;;;;;5053965;28;20214;-83
2022/08/09 02:05:44;;;;;;;2.83;1.47;;;;;;;;;;5053815;28;20234;-85
2022/08/09 02:08:12;;;;;;;2.87;1.77;;;;;;;;;;5053800;28;20206;-84
2022/08/09 02:10:40;;;;;;;1.77;1.67;;;;;;;;;;5053604;28;20728;-85
2022/08/09 02:13:11;;;;;;;1.73;1.63;;;;;;;;;;5054193;28;20282;-84
2022/08/09 02:15:40;;;;;;;1.33;1.30;;;;;;;;;;5053568;28;20586;-85
2022/08/09 02:18:07;;;;;;;1.80;1.70;;;;;;;;;;5054165;28;20202;-85
2022/08/09 02:20:38;;;;;;;2.03;1.83;;;;;;;;;;5053959;28;20234;-84
2022/08/09 02:23:07;;;;;;;2.00;1.90;;;;;;;;;;5054019;28;20592;-84
2022/08/09 02:25:35;;;;;;;1.60;1.50;;;;;;;;;;5053037;28;20229;-85
2022/08/09 02:28:05;;;;;;;1.60;1.50;;;;;;;;;;5053497;28;20202;-84
2022/08/09 02:30:36;;;;;;;1.70;1.60;;;;;;;;;;5052686;28;20245;-84
2022/08/09 02:33:03;;;;;;;1.90;1.60;;;;;;;;;;5053474;28;20535;-85
2022/08/09 02:35:32;;;;;;;1.80;1.70;;;;;;;;;;5053396;28;20701;-84
2022/08/09 02:38:01;;;;;;;1.97;1.70;;;;;;;;;;5054969;28;20298;-84
2022/08/09 02:40:29;;;;;;;2.00;1.80;;;;;;;;;;5060519;28;20279;-84
2022/08/09 02:42:57;;;;;;;1.87;1.77;;;;;;;;;;5053536;28;20233;-84
2022/08/09 02:45:28;;;;;;;1.80;1.70;;;;;;;;;;5053258;28;20229;-84
2022/08/09 02:47:57;;;;;;;3.50;1.90;;;;;;;;;;5053796;28;20213;-84
2022/08/09 02:50:26;;;;;;;2.30;1.80;;;;;;;;;;5052795;28;20257;-85
2022/08/09 02:52:55;;;;;;;4.07;1.60;;;;;;;;;;5046308;28;20209;-84
2022/08/09 02:55:25;;;;;;;1.80;1.70;;;;;;;;;;5063902;28;20229;-84
2022/08/09 02:57:53;;;;;;;2.00;1.80;;;;;;;;;;5053979;28;20654;-84
2022/08/09 03:00:20;;;;;;;3.33;1.80;;;;;;;;;;5053183;28;20217;-84
2022/08/09 03:02:49;;;;;;;1.57;1.53;;;;;;;;;;5053708;28;20223;-84
2022/08/09 03:05:16;;;;;;;4.77;1.73;;;;;;;;;;5053037;28;20236;-84
2022/08/09 03:07:44;;;;;;;2.00;1.90;;;;;;;;;;5053187;28;20209;-84
2022/08/09 03:10:12;;;;;;;2.03;1.90;;;;;;;;;;5052905;28;20237;-84
2022/08/09 03:12:40;;;;;;;1.80;1.70;;;;;;;;;;5052963;28;20214;-84
2022/08/09 03:15:08;;;;;;;1.63;1.53;;;;;;;;;;5053314;28;20222;-84
2022/08/09 03:17:36;;;;;;;1.77;1.67;;;;;;;;;;5053227;28;20201;-84
2022/08/09 03:20:04;;;;;;;3.03;1.80;;;;;;;;;;5053155;28;20202;-84
2022/08/09 03:22:33;;;;;;;1.93;1.83;;;;;;;;;;5053205;28;20230;-84
2022/08/09 03:25:00;;;;;;;1.83;1.73;;;;;;;;;;5053296;28;20225;-84
2022/08/09 03:27:29;;;;;;;1.90;1.77;;;;;;;;;;5043111;28;20233;-84
2022/08/09 03:29:58;;;;;;;2.40;1.80;;;;;;;;;;5053237;28;20226;-84
2022/08/09 03:32:26;;;;;;;2.67;1.83;;;;;;;;;;5052416;28;20229;-84
2022/08/09 03:34:54;;;;;;;2.00;1.73;;;;;;;;;;5053287;28;20233;-84
2022/08/09 03:37:21;;;;;;;3.33;2.17;;;;;;;;;;5052892;28;20312;-84
2022/08/09 03:39:48;;;;;;;2.37;1.60;;;;;;;;;;5053560;28;20205;-85
2022/08/09 03:42:15;;;;;;;2.10;1.90;;;;;;;;;;5052455;28;20253;-84
2022/08/09 03:44:42;;;;;;;2.60;2.10;;;;;;;;;;5053706;28;20253;-84
2022/08/09 03:47:11;;;;;;;3.67;1.97;;;;;;;;;;5056788;28;20233;-84
2022/08/09 03:49:38;;;;;;;2.07;1.97;;;;;;;;;;5057460;28;20213;-84
2022/08/09 03:52:06;;;;;;;1.93;1.83;;;;;;;;;;5056608;28;20232;-84
2022/08/09 03:54:35;;;;;;;1.90;1.80;;;;;;;;;;5056917;28;20256;-84
2022/08/09 03:57:05;;;;;;;2.00;1.90;;;;;;;;;;5056308;28;20230;-84
2022/08/09 03:59:33;;;;;;;2.90;2.00;;;;;;;;;;5056632;28;20191;-85
2022/08/09 04:02:00;;;;;;;2.30;2.10;;;;;;;;;;5055966;28;20737;-84
2022/08/09 04:04:29;;;;;;;3.50;2.13;;;;;;;;;;5056687;28;20241;-84
2022/08/09 04:06:57;;;;;;;2.40;2.20;;;;;;;;;;5056200;28;20261;-84
2022/08/09 04:09:24;;;;;;;3.03;2.00;;;;;;;;;;5057437;28;20206;-84
2022/08/09 04:11:59;;;;;;;1.90;1.80;;;;;;;;;;5056414;28;20260;-84
2022/08/09 04:14:29;;;;;;;2.30;2.10;;;;;;;;;;5057229;28;20229;-83
2022/08/09 04:16:56;;;;;;;1.90;1.80;;;;;;;;;;5057190;28;20254;-84
2022/08/09 04:19:23;;;;;;;2.47;1.87;;;;;;;;;;5064943;28;20202;-83
2022/08/09 04:21:52;;;;;;;1.93;1.80;;;;;;;;;;5058897;28;20241;-84
2022/08/09 04:24:19;;;;;;;3.50;2.13;;;;;;;;;;5057640;28;20225;-84
2022/08/09 04:26:46;;;;;;;2.30;2.10;;;;;;;;;;5056415;28;20244;-83
2022/08/09 04:29:13;;;;;;;2.20;2.10;;;;;;;;;;5056647;28;20213;-84
2022/08/09 04:31:40;;;;;;;3.90;2.03;;;;;;;;;;5055201;28;20248;-83
2022/08/09 04:34:07;;;;;;;2.27;2.07;;;;;;;;;;5056494;28;20241;-84
2022/08/09 04:36:34;;;;;;;2.40;2.20;;;;;;;;;;5055837;28;20633;-84
2022/08/09 04:39:04;;;;;;;1.93;1.83;;;;;;;;;;5056918;28;20210;-84
2022/08/09 04:41:31;;;;;;;3.63;1.83;;;;;;;;;;5055992;28;20230;-85
2022/08/09 04:43:58;;;;;;;1.90;1.80;;;;;;;;;;5057157;28;20249;-85
2022/08/09 04:46:26;;;;;;;2.30;2.17;;;;;;;;;;5057148;28;20230;-85
2022/08/09 04:48:53;;;;;;;3.27;2.10;;;;;;;;;;5057014;28;20194;-84
2022/08/09 04:51:20;;;;;;;2.50;2.30;;;;;;;;;;5055946;28;20238;-85
2022/08/09 04:53:47;;;;;;;1.93;1.73;;;;;;;;;;5056739;28;20597;-84
2022/08/09 04:56:15;;;;;;;2.20;2.10;;;;;;;;;;5056106;28;20246;-85
2022/08/09 04:58:42;;;;;;;1.87;1.77;;;;;;;;;;5056535;28;20213;-85
2022/08/09 05:01:09;;;;;;;2.30;2.20;;;;;;;;;;5055603;28;20732;-84
2022/08/09 05:03:36;;;;;;;2.10;1.90;;;;;;;;;;5073257;28;20208;-84
2022/08/09 05:06:05;;;;;;;2.40;2.00;;;;;;;;;;5076062;28;20754;-84
2022/08/09 05:08:33;;;;;;;2.27;2.07;;;;;;;;;;5076114;28;20277;-84
2022/08/09 05:11:00;;;;;;;1.97;1.87;;;;;;;;;;5075752;28;20241;-84
2022/08/09 05:13:28;;;;;;;2.27;2.10;;;;;;;;;;5075994;28;20202;-84
2022/08/09 05:15:56;;;;;;;2.43;2.23;;;;;;;;;;5075261;28;20233;-84
2022/08/09 05:18:23;;;;;;;2.57;2.33;;;;;;;;;;5075976;28;20217;-84
2022/08/09 05:20:51;;;;;;;4.50;1.87;;;;;;;;;;5075526;28;20239;-84
2022/08/09 05:23:18;;;;;;;2.60;2.40;;;;;;;;;;5075782;28;20204;-84
2022/08/09 05:25:45;;;;;;;2.80;2.20;;;;;;;;;;5074967;28;20235;-85
2022/08/09 05:28:12;;;;;;;2.47;2.27;;;;;;;;;;5076038;28;20213;-84
2022/08/09 05:30:40;;;;;;;2.40;2.20;;;;;;;;;;5075059;28;20260;-85
2022/08/09 05:33:07;;;;;;;2.37;2.20;;;;;;;;;;5093635;28;20212;-84
2022/08/09 05:35:34;;;;;;;3.30;2.30;;;;;;;;;;5074745;28;20229;-83
2022/08/09 05:38:01;;;;;;;5.03;2.33;;;;;;;;;;5075452;28;20212;-84
2022/08/09 05:40:28;;;;;;;4.23;2.43;;;;;;;;;;5075047;28;20229;-84
2022/08/09 05:42:56;;;;;;;6.70;2.47;;;;;;;;;;5075174;28;20224;-83
2022/08/09 05:45:23;;;;;;;3.37;2.50;;;;;;;;;;5074655;28;20237;-84
2022/08/09 05:47:51;;;;;;;7.13;2.37;;;;;;;;;;5075068;28;20697;-83
2022/08/09 05:50:22;;;;;;;5.50;2.47;;;;;;;;;;5074784;28;20209;-84
2022/08/09 05:52:49;;;;;;;4.80;2.40;;;;;;;;;;5075335;28;20197;-84
2022/08/09 05:55:16;;;;;;;3.33;3.00;;;;;;;;;;5074497;28;20213;-83
2022/08/09 05:57:43;;;;;;;2.93;2.00;;;;;;;;;;5075070;28;20205;-84
2022/08/09 06:00:11;;;;;;;6.83;2.50;;;;;;;;;;5074546;28;20212;-84
2022/08/09 06:02:39;;;;;;;2.30;2.20;;;;;;;;;;5074846;28;20206;-84
2022/08/09 06:05:08;;;;;;;2.83;2.27;;;;;;;;;;5074548;28;20651;-84
2022/08/09 06:07:35;;;;;;;4.47;2.10;;;;;;;;;;5074450;28;20252;-84
2022/08/09 06:10:02;;;;;;;3.67;2.20;;;;;;;;;;5074353;28;20212;-83
2022/08/09 06:12:29;;;;;;;6.77;2.20;;;;;;;;;;5074569;28;20236;-84
2022/08/09 06:14:56;;;;;;;2.63;2.20;;;;;;;;;;5086039;28;20221;-83
2022/08/09 06:17:23;;;;;;;7.97;2.33;;;;;;;;;;5075340;28;20237;-84
2022/08/09 06:19:50;;;;;;;3.03;2.30;;;;;;;;;;5075586;28;20701;-84
2022/08/09 06:22:19;;;;;;;3.43;2.20;;;;;;;;;;5075343;28;20702;-84
2022/08/09 06:24:46;;;;;;;3.93;2.20;;;;;;;;;;5075453;28;20222;-84
2022/08/09 06:27:13;;;;;;;2.17;1.80;;;;;;;;;;5073998;28;20233;-84
2022/08/09 06:29:40;;;;;;;2.87;1.70;;;;;;;;;;5074190;28;20205;-84
2022/08/09 06:32:07;;;;;;;5.60;2.03;;;;;;;;;;5072973;28;20262;-84
2022/08/09 06:34:34;;;;;;;2.17;1.80;;;;;;;;;;5062171;28;20714;-83
2022/08/09 06:37:01;;;;;;;1.93;1.83;;;;;;;;;;5053354;28;20237;-84
2022/08/09 06:39:31;;;;;;;3.33;1.80;;;;;;;;;;5054323;28;20260;-84
2022/08/09 06:41:58;;;;;;;2.53;1.98;;;;;;;;;;5053334;28;20245;-87
2022/08/09 06:44:28;;;;;;;3.58;1.88;;;;;;;;;;5053910;28;20226;-85
2022/08/09 06:46:55;;;;;;;5.80;1.98;;;;;;;;;;5052967;28;20237;-85
2022/08/09 06:49:22;;;;;;;2.35;2.15;;;;;;;;;;5053456;28;20210;-85
2022/08/09 06:51:49;;;;;;;2.80;1.92;;;;;;;;;;5052515;28;20241;-85
2022/08/09 06:54:16;;;;;;;2.20;1.90;;;;;;;;;;5053724;28;20230;-84
2022/08/09 06:56:45;;;;;;;3.25;1.83;;;;;;;;;;5053070;28;20237;-86
2022/08/09 06:59:12;;;;;;;2.22;1.77;;;;;;;;;;5053231;28;20213;-84
2022/08/09 07:01:39;;;;;;;2.70;1.52;;;;;;;;;;5052505;28;20253;-85
2022/08/09 07:04:06;;;;;;;3.08;2.00;;;;;;;;;;5039053;28;20261;-86
2022/08/09 07:06:34;;;;;;;3.35;1.63;;;;;;;;;;5032285;28;20234;-85
2022/08/09 07:09:01;;;;;;;2.15;1.60;;;;;;;;;;5039969;28;20290;-83
2022/08/09 07:11:28;;;;;;;3.63;1.70;;;;;;;;;;5072042;28;20233;-82
2022/08/09 07:13:57;;;;;;;1.65;1.55;;;;;;;;;;5072592;28;20221;-84
2022/08/09 07:16:24;;;;;;;2.15;1.95;;;;;;;;;;5054824;28;20237;-85
2022/08/09 07:18:51;;;;;;;4.22;1.95;;;;;;;;;;5051934;28;20536;-84
2022/08/09 07:21:19;;;;;;;2.92;2.00;;;;;;;;;;5050952;28;20233;-85
2022/08/09 07:23:46;;;;;;;3.70;1.70;;;;;;;;;;5052159;28;20738;-84
2022/08/09 07:26:13;;;;;;;3.63;1.48;;;;;;;;;;5052482;28;20234;-85
2022/08/09 07:28:40;;;;;;;5.55;1.70;;;;;;;;;;5052509;28;20201;-85
2022/08/09 07:31:09;;;;;;;4.63;1.70;;;;;;;;;;5052915;28;20230;-86
2022/08/09 07:33:36;;;;;;;3.05;1.45;;;;;;;;;;5055389;28;20213;-86
2022/08/09 07:36:03;;;;;;;2.38;1.40;;;;;;;;;;5063156;28;20260;-86
2022/08/09 07:38:30;;;;;;;3.83;1.42;;;;;;;;;;5054184;28;20248;-86
2022/08/09 07:40:57;;;;;;;2.20;1.70;;;;;;;;;;5053110;28;20237;-86
2022/08/09 07:43:24;;;;;;;3.95;1.75;;;;;;;;;;5053607;28;20213;-88
2022/08/09 07:45:51;;;;;;;2.20;1.48;;;;;;;;;;5052398;28;20230;-88
2022/08/09 07:48:20;;;;;;;3.50;1.50;;;;;;;;;;5052625;28;20681;-86
2022/08/09 07:50:47;;;;;;;1.65;1.02;;;;;;;;;;5051627;28;20275;-85
2022/08/09 07:53:15;;;;;;;5.25;1.83;;;;;;;;;;5052753;28;20209;-87
2022/08/09 07:55:42;;;;;;;1.73;1.42;;;;;;;;;;5051944;28;20230;-89
2022/08/09 07:58:09;;;;;;;2.30;1.40;;;;;;;;;;5052644;28;20209;-88
2022/08/09 08:00:36;;;;;;;2.58;1.42;;;;;;;;;;5051742;28;20229;-88
2022/08/09 08:03:03;;;;;;;1.70;1.60;;;;;;;;;;5052254;28;20197;-88
2022/08/09 08:05:32;;;;;;;2.05;1.45;;;;;;;;;;5075002;23;20238;-83
2022/08/09 08:08:01;;;;;;;3.45;1.90;;;;;;;;;;5072986;28;20209;-82
2022/08/09 08:10:29;;;;;;;3.60;1.73;;;;;;;;;;5073061;28;20224;-81
2022/08/09 08:12:56;;;;;;;1.90;1.52;;;;;;;;;;5074573;28;20229;-81
2022/08/09 08:15:23;;;;;;;3.22;1.63;;;;;;;;;;5075595;28;20240;-80
2022/08/09 08:17:51;;;;;;;2.25;1.33;;;;;;;;;;5076853;28;20201;-82
2022/08/09 08:20:18;;;;;;;2.40;1.30;;;;;;;;;;5075282;28;20190;-81
2022/08/09 08:22:46;;;;;;;5.00;1.88;;;;;;;;;;5077839;28;20186;-82
2022/08/09 08:25:15;;;;;;;1.38;1.20;;;;;;;;;;5077439;28;20213;-81
2022/08/09 08:27:42;;;;;;;1.92;1.20;;;;;;;;;;5072388;28;20212;-83
2022/08/09 08:30:10;;;;;;;1.27;1.17;;;;;;;;;;5071899;28;20205;-83
2022/08/09 08:32:37;;;;;;;1.88;1.42;;;;;;;;;;5076088;28;20705;-83
2022/08/09 08:35:05;;;;;;;1.63;1.52;;;;;;;;;;5077549;28;20588;-81
2022/08/09 08:37:33;;;;;;;2.83;1.30;;;;;;;;;;5078204;28;20585;-82
2022/08/09 08:40:02;;;;;;;1.15;1.13;;;;;;;;;;5076351;28;20206;-84
2022/08/09 08:42:29;;;;;;;3.13;1.63;;;;;;;;;;5075407;28;20607;-83
2022/08/09 08:44:57;;;;;;;3.90;1.60;;;;;;;;;;5056117;28;20202;-83
2022/08/09 08:47:25;;;;;;;1.95;1.20;;;;;;;;;;5055428;28;20728;-83
2022/08/09 08:49:53;;;;;;;1.90;1.38;;;;;;;;;;5055439;28;20205;-84
2022/08/09 08:52:24;;;;;;;2.22;1.60;;;;;;;;;;5055263;28;20244;-83
2022/08/09 08:54:51;;;;;;;2.30;1.42;;;;;;;;;;5055843;28;20446;-84
2022/08/09 08:57:19;;;;;;;4.13;1.42;;;;;;;;;;5055037;28;20241;-84
2022/08/09 08:59:46;;;;;;;2.35;1.02;;;;;;;;;;5055922;28;20658;-83
2022/08/09 09:02:20;;;;;;;1.88;1.60;;;;;;;;;;5056444;28;20609;-82
2022/08/09 09:04:48;;;;;;;1.33;1.20;;;;;;;;;;5057578;28;20209;-83
2022/08/09 09:07:15;;;;;;;1.92;1.60;;;;;;;;;;5055377;28;20713;-83
2022/08/09 09:09:46;;;;;;;1.20;1.20;;;;;;;;;;5056981;28;20202;-83
2022/08/09 09:12:14;;;;;;;2.33;1.23;;;;;;;;;;5056492;28;20284;-82
2022/08/09 09:14:44;;;;;;;1.65;1.30;;;;;;;;;;5060678;28;20222;-82
2022/08/09 09:17:11;;;;;;;1.50;1.40;;;;;;;;;;5059627;28;20264;-81
2022/08/09 09:19:38;;;;;;;2.33;1.40;;;;;;;;;;5059372;28;20202;-84
2022/08/09 09:22:06;;;;;;;1.67;1.35;;;;;;;;;;5055671;28;20234;-82
2022/08/09 09:24:35;;;;;;;1.58;1.40;;;;;;;;;;5055757;28;20572;-83
2022/08/09 09:27:03;;;;;;;1.95;1.65;;;;;;;;;;5054933;28;20238;-83
2022/08/09 09:29:31;;;;;;;5.57;1.40;;;;;;;;;;5055247;28;20217;-84
2022/08/09 09:32:00;;;;;;;2.72;1.40;;;;;;;;;;5056195;28;20612;-84
2022/08/09 09:34:27;;;;;;;2.45;1.63;;;;;;;;;;5055785;28;20214;-84
2022/08/09 09:36:54;;;;;;;3.08;1.40;;;;;;;;;;5057510;28;20234;-83
2022/08/09 09:39:22;;;;;;;2.92;1.38;;;;;;;;;;5064383;28;20213;-83
2022/08/09 09:41:50;;;;;;;1.75;1.30;;;;;;;;;;5059319;28;20234;-82
2022/08/09 09:44:23;;;;;;;1.17;1.17;;;;;;;;;;5062649;28;20207;-82
2022/08/09 09:46:50;;;;;;;2.17;1.20;;;;;;;;;;5062124;28;20663;-84
2022/08/09 09:49:21;;;;;;;1.42;1.33;;;;;;;;;;5055751;28;20217;-84
2022/08/09 09:51:48;;;;;;;2.47;1.40;;;;;;;;;;5054823;28;20234;-84
2022/08/09 09:54:17;;;;;;;1.40;1.27;;;;;;;;;;5054989;28;20688;-86
2022/08/09 09:56:45;;;;;;;1.75;1.30;;;;;;;;;;5054340;28;20237;-84
2022/08/09 09:59:13;;;;;;;1.45;1.35;;;;;;;;;;5054560;28;20213;-85
2022/08/09 10:01:41;;;;;;;2.75;1.10;;;;;;;;;;5053634;28;20317;-84
2022/08/09 10:04:13;;;;;;;1.10;1.10;;;;;;;;;;5054025;28;20305;-83
2022/08/09 10:06:42;;;;;;;2.88;1.10;;;;;;;;;;5055210;28;20246;-84
2022/08/09 10:09:11;;;;;;;3.78;1.10;;;;;;;;;;5054191;28;20209;-84
2022/08/09 10:11:38;;;;;;;1.20;1.10;;;;;;;;;;5061466;28;20237;-85
2022/08/09 10:14:05;;;;;;;1.58;1.10;;;;;;;;;;5055408;28;20774;-85
2022/08/09 10:16:33;;;;;;;1.40;1.30;;;;;;;;;;5056601;28;20672;-85
2022/08/09 10:19:01;;;;;;;1.30;1.20;;;;;;;;;;5056265;28;20210;-84
2022/08/09 10:21:28;;;;;;;1.77;0.90;;;;;;;;;;5062301;28;20241;-83
2022/08/09 10:24:00;;;;;;;2.40;1.40;;;;;;;;;;5064873;28;20205;-84
2022/08/09 10:26:27;;;;;;;4.38;1.38;;;;;;;;;;5064154;28;20241;-83
2022/08/09 10:28:54;;;;;;;1.10;1.10;;;;;;;;;;5062420;28;20292;-82
2022/08/09 10:31:22;;;;;;;1.83;1.23;;;;;;;;;;5060209;28;20244;-82
2022/08/09 10:33:49;;;;;;;1.17;1.08;;;;;;;;;;5061649;28;20252;-83
2022/08/09 10:36:16;;;;;;;2.45;1.30;;;;;;;;;;5060327;28;20241;-84
2022/08/09 10:38:44;;;;;;;1.10;1.00;;;;;;;;;;5060523;28;20225;-86
2022/08/09 10:41:13;;;;;;;1.52;1.00;;;;;;;;;;5052682;28;20232;-86
2022/08/09 10:43:43;;;;;;;1.23;0.98;;;;;;;;;;5052785;28;20208;-85
2022/08/09 10:46:24;;;;;;;1.33;1.13;;;;;;;;;;5079817;28;20584;-83
2022/08/09 10:48:56;;;;;;;1.60;1.00;;;;;;;;;;5073175;28;20209;-86
2022/08/09 10:51:30;;;;;;;1.08;0.95;;;;;;;;;;5072138;28;20243;-85
2022/08/09 10:54:00;;;;;;;1.25;1.20;;;;;;;;;;5072932;28;20231;-85
2022/08/09 10:56:32;;;;;;;2.08;1.23;;;;;;;;;;5072272;28;20244;-85
2022/08/09 10:59:01;;;;;;;2.00;1.00;;;;;;;;;;5072658;28;20232;-84
2022/08/09 11:01:39;;;;;;;1.08;0.98;;;;;;;;;;5060161;28;20229;-85
2022/08/09 11:04:19;;;;;;;2.00;1.30;;;;;;;;;;5052804;28;20292;-84
2022/08/09 11:06:47;;;;;;;1.30;1.20;;;;;;;;;;5052149;28;20237;-83
2022/08/09 11:09:17;;;;;;;0.90;0.90;;;;;;;;;;5052887;28;20201;-83
2022/08/09 11:12:05;;;;;;;1.20;1.10;;;;;;;;;;5052447;28;20239;-83
2022/08/09 11:14:36;;;;;;;2.22;1.35;;;;;;;;;;5053052;28;20217;-82
2022/08/09 11:17:04;;;;;;;2.63;0.98;;;;;;;;;;5057400;28;20234;-83
2022/08/09 11:19:50;;;;;;;0.85;0.85;;;;;;;;;;5065748;28;20217;-83
2022/08/09 11:22:17;;;;;;;1.85;1.30;;;;;;;;;;5053549;28;20728;-84
2022/08/09 11:25:04;;;;;;;1.45;1.20;;;;;;;;;;5052141;28;20205;-83
2022/08/09 11:27:31;;;;;;;1.17;1.10;;;;;;;;;;5082523;28;20640;-82
2022/08/09 11:30:00;;;;;;;1.45;0.85;;;;;;;;;;5090218;28;20200;-82
2022/08/09 11:32:44;;;;;;;1.30;1.20;;;;;;;;;;5080129;28;20236;-82
2022/08/09 11:35:16;;;;;;;1.65;1.45;;;;;;;;;;5072252;28;20623;-81
2022/08/09 11:37:43;;;;;;;2.25;1.02;;;;;;;;;;5072232;28;20535;-82
2022/08/09 11:40:12;;;;;;;2.22;1.20;;;;;;;;;;5071160;28;20657;-84
2022/08/09 11:42:40;;;;;;;1.63;1.27;;;;;;;;;;5072235;28;20231;-85
2022/08/09 11:45:20;;;;;;;2.38;1.27;;;;;;;;;;5071894;28;20566;-84
2022/08/09 11:47:47;;;;;;;2.25;1.40;;;;;;;;;;5072031;28;20239;-83
2022/08/09 11:50:15;;;;;;;3.20;1.30;;;;;;;;;;5072233;28;20204;-84
2022/08/09 11:53:15;;;;;;;1.85;1.17;;;;;;;;;;5072409;28;20311;-84
2022/08/09 11:55:43;;;;;;;0.88;0.88;;;;;;;;;;5071698;28;20604;-83
2022/08/09 11:58:27;;;;;;;1.95;1.35;;;;;;;;;;5064286;28;20546;-84
2022/08/09 12:00:58;;;;;;;1.27;0.95;;;;;;;;;;5051026;28;20237;-83
2022/08/09 12:03:26;;;;;;;1.00;1.00;;;;;;;;;;5052142;28;20259;-84
2022/08/09 12:05:54;;;;;;;1.02;1.02;;;;;;;;;;5052183;28;20598;-84
2022/08/09 12:08:23;;;;;;;1.65;1.10;;;;;;;;;;5055974;28;20677;-83
2022/08/09 12:10:51;;;;;;;2.90;1.10;;;;;;;;;;5055087;28;20233;-83
2022/08/09 12:13:29;;;;;;;1.15;1.15;;;;;;;;;;5055424;28;20203;-85
2022/08/09 12:16:01;;;;;;;1.23;1.10;;;;;;;;;;5055153;28;20755;-84
2022/08/09 12:18:28;;;;;;;0.80;0.80;;;;;;;;;;5055310;28;20741;-84
2022/08/09 12:20:55;;;;;;;1.55;1.20;;;;;;;;;;5054966;28;20237;-85
2022/08/09 12:23:22;;;;;;;2.47;0.90;;;;;;;;;;5055494;28;20237;-83
2022/08/09 12:25:50;;;;;;;1.20;1.20;;;;;;;;;;5054999;28;20240;-82
2022/08/09 12:28:19;;;;;;;1.00;1.00;;;;;;;;;;5055197;28;20669;-83
2022/08/09 12:30:47;;;;;;;0.88;0.88;;;;;;;;;;5055263;28;20229;-82
2022/08/09 12:33:16;;;;;;;2.15;1.10;;;;;;;;;;5065570;28;20406;-83
2022/08/09 12:35:44;;;;;;;1.20;1.00;;;;;;;;;;5085358;28;20236;-83
2022/08/09 12:38:18;;;;;;;2.42;1.35;;;;;;;;;;5094884;28;20200;-83
2022/08/09 12:40:46;;;;;;;1.20;1.20;;;;;;;;;;5096341;28;20229;-82
2022/08/09 12:43:14;;;;;;;1.02;1.02;;;;;;;;;;5089758;28;20213;-84
2022/08/09 12:45:41;;;;;;;3.70;1.60;;;;;;;;;;5088834;28;20238;-82
2022/08/09 12:48:09;;;;;;;1.20;1.20;;;;;;;;;;5095006;28;20207;-83
2022/08/09 12:50:38;;;;;;;1.20;1.02;;;;;;;;;;5094985;28;20227;-82
2022/08/09 12:53:05;;;;;;;3.97;1.10;;;;;;;;;;5094835;28;20702;-83
2022/08/09 12:55:33;;;;;;;1.20;1.10;;;;;;;;;;5094392;28;20243;-83
2022/08/09 12:58:12;;;;;;;1.42;1.30;;;;;;;;;;5088468;28;20200;-83
2022/08/09 13:00:41;;;;;;;1.45;1.23;;;;;;;;;;5077921;28;20240;-82
2022/08/09 13:03:09;;;;;;;1.20;1.10;;;;;;;;;;5079943;28;20224;-83
2022/08/09 13:05:44;;;;;;;1.25;1.05;;;;;;;;;;5075964;28;20244;-83
2022/08/09 13:08:13;;;;;;;1.25;1.00;;;;;;;;;;5075829;28;20204;-83
2022/08/09 13:10:51;;;;;;;2.05;0.90;;;;;;;;;;5074454;28;20224;-82
2022/08/09 13:13:27;;;;;;;1.35;1.08;;;;;;;;;;5074712;28;20200;-83
2022/08/09 13:15:55;;;;;;;1.05;0.95;;;;;;;;;;5074157;28;20236;-83
2022/08/09 13:18:22;;;;;;;1.83;1.17;;;;;;;;;;5074460;28;20212;-83
2022/08/09 13:20:51;;;;;;;1.20;1.00;;;;;;;;;;5070841;28;20233;-83
2022/08/09 13:23:18;;;;;;;2.17;1.10;;;;;;;;;;5074071;28;20252;-84
2022/08/09 13:25:46;;;;;;;1.10;1.00;;;;;;;;;;5073295;28;20704;-83
2022/08/09 13:28:14;;;;;;;2.67;1.13;;;;;;;;;;5074708;28;20276;-83
2022/08/09 13:30:41;;;;;;;4.18;1.08;;;;;;;;;;5074066;28;20232;-83
2022/08/09 13:33:08;;;;;;;4.50;1.40;;;;;;;;;;5070730;28;20201;-85
2022/08/09 13:35:36;;;;;;;1.27;1.15;;;;;;;;;;5083398;28;20247;-84
2022/08/09 13:38:04;;;;;;;3.33;1.30;;;;;;;;;;5096000;28;20188;-84
2022/08/09 13:40:31;;;;;;;0.95;0.95;;;;;;;;;;5093751;28;20228;-85
2022/08/09 13:42:58;;;;;;;1.10;1.10;;;;;;;;;;5093893;28;20224;-84
2022/08/09 13:45:25;;;;;;;0.93;0.90;;;;;;;;;;5093496;28;20263;-83
2022/08/09 13:47:52;;;;;;;1.70;1.17;;;;;;;;;;5093833;28;20208;-85
2022/08/09 13:50:19;;;;;;;1.15;1.00;;;;;;;;;;5093285;28;20247;-83
2022/08/09 13:52:47;;;;;;;3.38;1.17;;;;;;;;;;5093760;28;20215;-84
2022/08/09 13:55:16;;;;;;;2.75;1.35;;;;;;;;;;5093146;28;20208;-84
2022/08/09 13:57:46;;;;;;;1.17;0.93;;;;;;;;;;5093734;28;20226;-84
2022/08/09 14:00:13;;;;;;;1.73;1.40;;;;;;;;;;5093663;28;20210;-84
2022/08/09 14:02:42;;;;;;;1.33;1.20;;;;;;;;;;5094119;28;20292;-84
2022/08/09 14:05:09;;;;;;;1.10;1.10;;;;;;;;;;5094117;28;20230;-84
2022/08/09 14:07:36;;;;;;;1.10;1.00;;;;;;;;;;5075175;22;20449;-88
2022/08/09 14:10:04;;;;;;;1.40;1.17;;;;;;;;;;5053278;28;20611;-87
2022/08/09 14:12:32;;;;;;;3.53;1.20;;;;;;;;;;5054093;28;20202;-87
2022/08/09 14:14:59;;;;;;;1.35;1.10;;;;;;;;;;5054245;28;20212;-88
2022/08/09 14:17:26;;;;;;;2.47;1.30;;;;;;;;;;5053451;28;20254;-87
2022/08/09 14:19:54;;;;;;;3.15;1.25;;;;;;;;;;5046149;28;20293;-88
2022/08/09 14:22:21;;;;;;;2.25;1.27;;;;;;;;;;5053116;28;20260;-87
2022/08/09 14:24:48;;;;;;;1.63;1.00;;;;;;;;;;5054027;28;20228;-88
2022/08/09 14:27:15;;;;;;;1.30;1.20;;;;;;;;;;5047166;28;20240;-87
2022/08/09 14:29:44;;;;;;;1.10;1.10;;;;;;;;;;5033297;28;20194;-88
2022/08/09 14:32:11;;;;;;;2.33;1.20;;;;;;;;;;5032810;28;20252;-88
2022/08/09 14:34:38;;;;;;;1.55;1.30;;;;;;;;;;5034288;28;20609;-88
2022/08/09 14:37:06;;;;;;;2.55;1.10;;;;;;;;;;5049675;28;20240;-88
2022/08/09 14:39:34;;;;;;;1.25;1.15;;;;;;;;;;5053222;28;20208;-88
2022/08/09 14:42:01;;;;;;;2.60;1.25;;;;;;;;;;5052967;28;20233;-88
2022/08/09 14:44:28;;;;;;;2.78;1.20;;;;;;;;;;5053007;28;20217;-87
2022/08/09 14:46:56;;;;;;;1.67;1.10;;;;;;;;;;5052560;28;20604;-88
2022/08/09 14:49:25;;;;;;;1.08;1.05;;;;;;;;;;5052960;28;20205;-88
2022/08/09 14:51:52;;;;;;;1.50;1.30;;;;;;;;;;5052667;28;20257;-88